Metar Cercanos

 

LEPA - Palma De Mallorc, Spain
Distance from station: ONO 38km
Actualización: Wed, 29-Nov-2023 8:30pm CET
Parcialmente nuboso
Parcialmente nuboso
 Viento del SO
Viento: SO 15 km/h
Temperatura: 18°C
Rocío: 15°C
Humedad: 83%
Barómetro: 1008 hPa
Clouds: Parcialmente nuboso
Visibility: 10 km
Cloud details: Parcialmente nuboso 457 m
2023/11/29 19:30 LEPA 291930Z 23008KT 200V260 9999 SCT015 18/15 Q1008 NOSIG
LEMH - Mahon/Menorca Is, Spain
Distance from station: ENE 105km
Actualización: Wed, 29-Nov-2023 8:30pm CET
Parcialmente nuboso
Parcialmente nuboso
 Viento del SO
Viento: SO 22 km/h
Temperatura: 17°C
Rocío: 16°C
Humedad: 94%
Barómetro: 1008 hPa
Clouds: Parcialmente nuboso
Visibility: 10 km
Cloud details: Parcialmente nuboso 305 m
2023/11/29 19:30 LEMH 291930Z 22012KT 190V250 9999 SCT010 17/16 Q1008
 
LEIB - Ibiza/Es Codola, Spain
Distance from station: OSO 165km
Actualización: Wed, 29-Nov-2023 8:30pm CET
Despejado
Despejado
 Viento del OSO
Viento: OSO 31 km/h
Temperatura: 17°C
Rocío: 15°C
Humedad: 88%
Barómetro: 1008 hPa
Resumen: Despejado
Visibility: greater than 10 km
2023/11/29 19:30 LEIB 291930Z 24017KT CAVOK 17/15 Q1008 NOSIG
LEBL - Barcelona Airpor, Spain
Distance from station: NNO 225km
Actualización: Wed, 29-Nov-2023 8:30pm CET
Few Clouds
Few Clouds
 Viento del NO
Viento: NO 6 km/h
Temperatura: 13°C
Rocío: 11°C
Humedad: 88%
Barómetro: 1005 hPa
Clouds: Few Clouds
Visibility: 10 km
Cloud details: Few Clouds 457 m
2023/11/29 19:30 LEBL 291930Z 31003KT 9999 FEW015 13/11 Q1005 NOSIG
 
LEVC - Valencia (civ/Mi, Spain
Distance from station: NO 188km
Actualización: Wed, 29-Nov-2023 8:30pm CET
Few Clouds
Few Clouds
 Viento del SO
Viento: SO 13 km/h
Temperatura: 19°C
Rocío: 12°C
Humedad: 64%
Barómetro: 1007 hPa
Clouds: Few Clouds
Visibility: 10 km
Cloud details: Few Clouds 1219 m
2023/11/29 19:30 LEVC 291930Z 23007KT 200V260 9999 FEW040 19/12 Q1007 NOSIG
LEGE - Gerona/Costa Bra, Spain
Distance from station: N 276km
Actualización: Wed, 29-Nov-2023 8:30pm CET
Few Clouds
Few Clouds
 Viento del SE
Viento: SE 6 km/h
Temperatura: 13°C
Rocío: 11°C
Humedad: 88%
Barómetro: 1003 hPa
Clouds: Few Clouds
Visibility: 10 km
Cloud details: Few Clouds 1524 m
2023/11/29 19:30 LEGE 291930Z 14003KT 080V180 9999 FEW050 13/11 Q1003
 
LEAL - Alicante/El Alte, Spain
Distance from station: OSO 344km
Actualización: Wed, 29-Nov-2023 8:30pm CET
Despejado
Despejado
 Viento del varies
Viento: varies 4 km/h
Temperatura: 14°C
Rocío: 10°C
Humedad: 77%
Barómetro: 1008 hPa
Resumen: Despejado
Visibility: greater than 10 km
2023/11/29 19:30 LEAL 291930Z VRB02KT CAVOK 14/10 Q1008 NOSIG
LEAM - Almeria Airport, Spain
Distance from station: SSO 56km
Actualización: Wed, 29-Nov-2023 8:30pm CET
Few Clouds
Few Clouds
 Viento del calm
Viento: Calma
Temperatura: 16°C
Rocío: 15°C
Humedad: 94%
Barómetro: 1010 hPa
Clouds: Few Clouds
Visibility: 10 km
Cloud details: Few Clouds 305 m
2023/11/29 19:30 LEAM 291930Z 00000KT 9999 FEW010 16/15 Q1010
 
LEZG - Zaragoza (mil/Ci, Spain
Distance from station: NO 431km
Actualización: Wed, 29-Nov-2023 8:30pm CET
Few Clouds
Few Clouds
 Viento del O
Viento: O 11 km/h
Temperatura: 16°C
Rocío: 8°C
Humedad: 59%
Barómetro: 1004 hPa
Clouds: Few Clouds
Visibility: 10 km
Cloud details: Few Clouds 2134 m
2023/11/29 19:30 LEZG 291930Z 26006KT 9999 FEW070 16/08 Q1004
LEMD - Madrid/Barajas, Spain
Distance from station: ONO 234km
Actualización: Wed, 29-Nov-2023 8:30pm CET
Few Clouds
Few Clouds
 Viento del SO
Viento: SO 17 km/h
Temperatura: 13°C
Rocío: 11°C
Humedad: 88%
Barómetro: 1008 hPa
Clouds: Few Clouds
Visibility: 10 km
Cloud details: Few Clouds 488 m
2023/11/29 19:30 LEMD 291930Z 22009KT 9999 FEW016 13/11 Q1008 NOSIG
 
LEGR - Granada Airport, Spain
Distance from station: OSO 62km
Actualización: Wed, 29-Nov-2023 8:30pm CET
Parcialmente nuboso
Parcialmente nuboso
 Viento del S
Viento: S 6 km/h
Temperatura: 15°C
Rocío: 12°C
Humedad: 82%
Barómetro: 1013 hPa
Clouds: Parcialmente nuboso
Visibility: 10 km
Cloud details: Few Clouds 1067 m
Parcialmente nuboso 1829 m
2023/11/29 19:30 LEGR 291930Z 17003KT 140V200 9999 FEW035 SCT060 15/12 Q1013
LEMG - Malaga (civ/Mil), Spain
Distance from station: OSO 227km
Actualización: Wed, 29-Nov-2023 8:30pm CET
Few Clouds
Few Clouds
 Viento del varies
Viento: varies 2 km/h
Temperatura: 16°C
Rocío: 13°C
Humedad: 83%
Barómetro: 1011 hPa
Clouds: Few Clouds
Visibility: 10 km
Cloud details: Few Clouds 914 m
2023/11/29 19:30 LEMG 291930Z VRB01KT 9999 FEW030 16/13 Q1011 NOSIG
 
LEZL - Sevilla (civ/Mil, Spain
Distance from station: S 318km
Actualización: Wed, 29-Nov-2023 8:30pm CET
Cubierto
Cubierto
 Viento del SSO
Viento: SSO 7 km/h
Temperatura: 17°C
Rocío: 17°C
Humedad: 100%
Barómetro: 1010 hPa
Clouds: Cubierto
Visibility: 9 km
Cloud details: Cubierto 91 m
2023/11/29 19:30 LEZL 291930Z 21004KT 160V250 9000 OVC003 17/17 Q1010 NOSIG
LEVT - Vitoria, Spain
Distance from station: NO 226km
Actualización: Wed, 29-Nov-2023 8:30pm CET
Muy nuboso
Muy nuboso
 Viento del SSO
Viento: SSO 35 km/h
Temperatura: 16°C
Rocío: 10°C
Humedad: 68%
Barómetro: 1001 hPa
Clouds: Muy nuboso
Visibility: 10 km
Cloud details: Muy nuboso 1067 m
2023/11/29 19:30 LEVT 291930Z 21019KT 160V240 9999 BKN035 16/10 Q1001
 
LEBB - Bilbao/Sondica, Spain
Distance from station: NNO 235km
Actualización: Wed, 29-Nov-2023 8:30pm CET
Muy nuboso
Muy nuboso
 Viento del SO
Viento: SO 17 km/h
Temperatura: 21°C
Rocío: 13°C
Humedad: 60%
Barómetro: 998 hPa
Clouds: Muy nuboso
Visibility: 10 km
Cloud details: Muy nuboso 1494 m
Muy nuboso 1707 m
2023/11/29 19:30 LEBB 291930Z 22009KT 170V280 9999 BKN049 BKN056 21/13 Q0998 NOSIG
LESO - San Sebastian/Fu, Spain
Distance from station: N 231km
Actualización: Wed, 29-Nov-2023 8:30pm CET
Parcialmente nuboso
Parcialmente nuboso
 Viento del SO
Viento: SO 17 km/h
Temperatura: 20°C
Rocío: 12°C
Humedad: 60%
Barómetro: 998 hPa
Clouds: Parcialmente nuboso
Visibility: 10 km
Cloud details: Few Clouds 610 m
Parcialmente nuboso 1768 m
2023/11/29 19:30 LESO 291930Z 22009KT 190V260 9999 FEW020 SCT058 20/12 Q0998
 
LEVD - Valladolid(Mil/C, Spain
Distance from station: ONO 239km
Actualización: Wed, 29-Nov-2023 8:30pm CET
Muy nuboso
Muy nuboso
 Viento del SO
Viento: SO 28 km/h
Temperatura: 12°C
Rocío: 11°C
Humedad: 94%
Barómetro: 1005 hPa
Clouds: Muy nuboso
Visibility: 10 km
Cloud details: Parcialmente nuboso 457 m
Muy nuboso 1158 m
2023/11/29 19:30 LEVD 291930Z 22015KT 9999 SCT015 BKN038 12/11 Q1005
LESA - Salamanca (civ/M, Spain
Distance from station: ONO 349km
Actualización: Wed, 29-Nov-2023 8:30pm CET
Cubierto
Cubierto
 Viento del SSO
Viento: SSO 20 km/h
Temperatura: 13°C
Rocío: 11°C
Humedad: 88%
Barómetro: 1006 hPa
Clouds: Cubierto
Visibility: 10 km
Cloud details: Cubierto 1067 m
2023/11/29 19:30 LESA 291930Z 21011KT 9999 OVC035 13/11 Q1006
 
LEXJ - Santander/Paraya, Spain
Distance from station: NNO 247km
Actualización: Wed, 29-Nov-2023 8:30pm CET
Few Clouds
Few Clouds
 Viento del calm
Viento: Calma
Temperatura: 14°C
Rocío: 14°C
Humedad: 100%
Barómetro: 998 hPa
Clouds: Few Clouds
Visibility: 10 km
Cloud details: Few Clouds 2438 m
2023/11/29 19:30 LEXJ 291930Z 00000KT 9999 FEW080 14/14 Q0998
LEAS - Asturias/Aviles, Spain
Distance from station: NO 214km
Actualización: Wed, 29-Nov-2023 8:30pm CET
Lluvia débil, Muy nuboso
Lluvia débil, Muy nuboso
 Viento del ONO
Viento: ONO 15 km/h
Temperatura: 16°C
Rocío: 15°C
Humedad: 94%
Barómetro: 999 hPa
Resumen: Lluvia débil
Clouds: Muy nuboso
Visibility: 10 km
Cloud details: Few Clouds 91 m
Muy nuboso 1067 m
2023/11/29 19:30 LEAS 291930Z 30008KT 270V340 9999 -RA FEW003 BKN035 16/15 Q0999 NOSIG
 
LECO - La Coruna/Alvedr, Spain
Distance from station: ONO 222km
Actualización: Wed, 29-Nov-2023 8:30pm CET
Cubierto
Cubierto
 Viento del NO
Viento: NO 20 km/h
Temperatura: 14°C
Rocío: 13°C
Humedad: 94%
Barómetro: 1002 hPa
Clouds: Cubierto
Visibility: 10 km
Cloud details: Few Clouds 152 m
Muy nuboso 366 m
Cubierto 610 m
2023/11/29 19:30 LECO 291930Z 32011KT 260V350 9999 FEW005 BKN012 OVC020 14/13 Q1002 NOSIG
LEVX - Vigo/Peinador, Spain
Distance from station: O 214km
Actualización: Wed, 29-Nov-2023 8:30pm CET
Lluvia, Patches of, Niebla, Cubierto
Lluvia, Patches of, Niebla, Cubierto
 Viento del O
Viento: O 13 km/h
Temperatura: 14°C
Rocío: 14°C
Humedad: 100%
Barómetro: 1003 hPa
Resumen: Lluvia, Patches of, Niebla
Clouds: Cubierto
Visibility: 2 km
Cloud details: Parcialmente nuboso 30 m
Muy nuboso 61 m
Cubierto 122 m
2023/11/29 19:30 LEVX 291930Z 26007KT 200V320 1600 RA BCFG SCT001 BKN002 OVC004 14/14 Q1003 NOSIG